createdAt,value
2022-12-23T00:55:33.172Z,26.64
2022-12-23T00:56:34.126Z,26.63
2022-12-23T00:57:34.119Z,26.65
2022-12-23T00:58:34.108Z,26.60
2022-12-23T00:59:34.123Z,26.61
2022-12-23T01:00:34.091Z,26.63
2022-12-23T01:01:34.274Z,26.61
2022-12-23T01:02:34.251Z,26.58
2022-12-23T01:03:34.186Z,26.63
2022-12-23T01:04:34.059Z,26.61
2022-12-23T01:05:34.052Z,26.64
2022-12-23T01:06:34.041Z,26.64
2022-12-23T01:07:34.043Z,26.63
2022-12-23T01:08:34.028Z,26.63
2022-12-23T01:09:34.021Z,26.58
2022-12-23T01:10:34.027Z,26.61
2022-12-23T01:11:34.030Z,26.65
2022-12-23T01:12:33.993Z,26.63
2022-12-23T01:13:33.983Z,26.64
2022-12-23T01:14:33.980Z,26.63
2022-12-23T01:15:33.984Z,26.65
2022-12-23T01:16:33.981Z,26.63
2022-12-23T01:17:33.975Z,26.67
2022-12-23T01:18:33.944Z,26.65
2022-12-23T01:19:33.937Z,26.63
2022-12-23T01:20:33.926Z,26.65
2022-12-23T01:21:33.920Z,26.64
2022-12-23T01:22:33.911Z,26.68
2022-12-23T01:23:33.902Z,26.63
2022-12-23T01:24:33.899Z,26.64
2022-12-23T01:25:33.893Z,26.65
2022-12-23T01:26:33.877Z,26.64
2022-12-23T01:27:33.897Z,26.66
2022-12-23T01:28:33.866Z,26.68
2022-12-23T01:29:33.863Z,26.67
2022-12-23T01:30:33.847Z,26.64
2022-12-23T01:31:33.914Z,26.64
2022-12-23T01:32:33.881Z,26.65
2022-12-23T01:33:33.816Z,26.65
2022-12-23T01:34:37.094Z,26.64
2022-12-23T01:35:33.819Z,26.60
2022-12-23T01:36:33.796Z,26.61
2022-12-23T01:37:33.818Z,26.61
2022-12-23T01:38:33.785Z,26.66
2022-12-23T01:39:33.778Z,26.67
2022-12-23T01:40:33.757Z,26.63
2022-12-23T01:41:33.758Z,26.64
2022-12-23T01:42:33.743Z,26.63
2022-12-23T01:43:33.769Z,26.61
2022-12-23T01:44:33.728Z,26.62
2022-12-23T01:45:33.786Z,26.68
2022-12-23T01:46:33.818Z,26.66
2022-12-23T01:47:33.705Z,26.65
2022-12-23T01:48:33.698Z,26.64
2022-12-23T01:49:33.694Z,26.61
2022-12-23T01:50:33.679Z,26.61
2022-12-23T01:51:33.676Z,26.65
2022-12-23T01:52:33.660Z,26.65
2022-12-23T01:53:33.657Z,26.62
2022-12-23T01:54:33.662Z,26.62
2022-12-23T01:55:33.633Z,26.62
2022-12-23T01:56:33.625Z,26.64
2022-12-23T01:57:33.658Z,26.62
2022-12-23T01:58:33.615Z,26.62
2022-12-23T01:59:33.633Z,26.66
2022-12-23T02:00:33.600Z,26.64
2022-12-23T02:01:33.769Z,26.68
2022-12-23T02:02:33.693Z,26.64
2022-12-23T02:03:33.633Z,26.57
2022-12-23T02:04:33.556Z,26.65
2022-12-23T02:05:33.555Z,26.61
2022-12-23T02:06:33.542Z,26.62
2022-12-23T02:07:33.535Z,26.61
2022-12-23T02:08:33.541Z,26.66
2022-12-23T02:09:33.517Z,26.63
2022-12-23T02:10:33.513Z,26.64
2022-12-23T02:11:33.514Z,26.62
2022-12-23T02:12:33.547Z,26.59
2022-12-23T02:13:33.489Z,26.66
2022-12-23T02:14:33.491Z,26.61
2022-12-23T02:15:33.494Z,26.57
2022-12-23T02:16:33.493Z,26.57
2022-12-23T02:17:33.457Z,26.55
2022-12-23T02:18:33.458Z,26.57
2022-12-23T02:19:33.429Z,26.58
2022-12-23T02:20:33.426Z,26.54
2022-12-23T02:21:33.438Z,26.61
2022-12-23T02:22:33.417Z,26.60
2022-12-23T02:23:33.412Z,26.55
2022-12-23T02:24:33.439Z,26.55
2022-12-23T02:25:33.387Z,26.55
2022-12-23T02:26:33.377Z,26.54
2022-12-23T02:27:33.371Z,26.54
2022-12-23T02:28:33.359Z,26.52
2022-12-23T02:29:33.352Z,26.55
2022-12-23T02:30:33.363Z,26.48
2022-12-23T02:31:34.057Z,26.51
2022-12-23T02:32:33.322Z,26.52
2022-12-23T02:33:33.317Z,26.55
2022-12-23T02:34:33.426Z,26.57
2022-12-23T02:35:33.298Z,26.51
2022-12-23T02:36:33.306Z,26.52
2022-12-23T02:37:33.291Z,26.52
2022-12-23T02:38:33.282Z,26.48
2022-12-23T02:39:33.266Z,26.50
2022-12-23T02:40:33.259Z,26.47
2022-12-23T02:41:33.251Z,26.51
2022-12-23T02:42:33.247Z,26.47
2022-12-23T02:43:33.546Z,26.51
2022-12-23T02:44:33.235Z,26.51
2022-12-23T02:45:33.221Z,26.51
2022-12-23T02:46:33.260Z,26.52
2022-12-23T02:47:33.223Z,26.51
2022-12-23T02:48:33.205Z,26.47
2022-12-23T02:49:33.194Z,26.50
2022-12-23T02:50:33.180Z,26.50
2022-12-23T02:51:33.170Z,26.52
2022-12-23T02:52:33.166Z,26.54
2022-12-23T02:53:33.167Z,26.51
2022-12-23T02:54:33.140Z,26.50
2022-12-23T02:55:33.142Z,26.50
2022-12-23T02:56:33.126Z,26.47
2022-12-23T02:57:33.129Z,26.48
2022-12-23T02:58:33.119Z,26.51
2022-12-23T02:59:33.111Z,26.48
2022-12-23T03:00:33.097Z,26.48
2022-12-23T03:01:33.231Z,26.44
2022-12-23T03:02:33.272Z,26.51
2022-12-23T03:03:33.213Z,26.45
2022-12-23T03:04:33.056Z,26.51
2022-12-23T03:05:33.054Z,26.51
2022-12-23T03:06:33.052Z,26.43
2022-12-23T03:07:33.060Z,26.44
2022-12-23T03:08:33.026Z,26.41
2022-12-23T03:09:33.018Z,26.45
2022-12-23T03:10:33.009Z,26.42
2022-12-23T03:11:33.008Z,26.47
2022-12-23T03:12:32.997Z,26.43
2022-12-23T03:13:32.993Z,26.41
2022-12-23T18:52:25.105Z,26.83
2022-12-23T19:55:24.569Z,26.84
2022-12-23T19:56:24.570Z,26.86
2022-12-23T21:01:24.038Z,26.90
2022-12-23T21:02:24.012Z,26.88
2022-12-23T21:03:24.053Z,26.84
2022-12-23T21:04:23.998Z,26.90
2022-12-23T21:05:23.985Z,26.86
2022-12-23T21:06:23.978Z,26.87
2022-12-23T21:07:23.968Z,26.83
2022-12-23T21:08:23.960Z,26.84
2022-12-23T21:09:23.952Z,26.87
2022-12-23T21:10:23.952Z,26.86
2022-12-23T21:11:23.966Z,26.86
2022-12-23T21:12:23.926Z,26.83
2022-12-23T21:13:23.918Z,26.81
2022-12-23T21:14:23.917Z,26.87
2022-12-23T21:15:23.901Z,26.90
2022-12-23T21:16:23.998Z,26.90
2022-12-23T21:17:23.944Z,26.88
2022-12-23T21:18:23.882Z,26.90
2022-12-23T21:19:23.865Z,26.87
2022-12-23T21:20:23.861Z,26.91
2022-12-23T21:21:23.854Z,26.87
2022-12-23T21:22:23.840Z,26.88
2022-12-23T21:23:23.837Z,26.88
2022-12-23T21:24:23.834Z,26.86
2022-12-23T21:25:23.821Z,26.86
2022-12-23T21:26:23.812Z,26.91
2022-12-23T21:27:23.831Z,26.91
2022-12-23T21:28:23.792Z,26.90
2022-12-23T21:29:23.788Z,26.90
2022-12-23T21:30:23.777Z,26.91
2022-12-23T21:31:23.909Z,26.91
2022-12-23T21:32:23.764Z,26.87
2022-12-23T21:33:23.770Z,26.91
2022-12-23T21:34:23.756Z,26.93
2022-12-23T21:35:23.735Z,26.90
2022-12-23T21:36:23.801Z,26.90
2022-12-23T21:37:23.728Z,26.93
2022-12-23T21:38:23.724Z,26.87
2022-12-23T21:39:23.715Z,26.91
2022-12-23T21:40:23.715Z,26.87
2022-12-23T21:41:23.722Z,26.88
2022-12-23T21:42:23.677Z,26.91
2022-12-23T21:43:23.696Z,26.87
2022-12-23T21:44:23.663Z,26.90
2022-12-23T21:45:23.658Z,26.90
2022-12-23T21:46:23.839Z,26.87
2022-12-23T21:47:23.642Z,26.84
2022-12-23T21:48:23.632Z,26.87
2022-12-23T21:49:23.620Z,26.91
2022-12-23T21:50:23.618Z,26.91
2022-12-23T21:51:23.605Z,26.93
2022-12-23T21:52:23.596Z,26.90
2022-12-23T21:53:23.588Z,26.90
2022-12-23T21:54:23.583Z,26.91
2022-12-23T21:55:23.589Z,26.94
2022-12-23T21:56:23.567Z,26.93
2022-12-23T21:57:23.555Z,26.88
2022-12-23T21:58:23.547Z,26.88
2022-12-23T21:59:23.561Z,26.87
2022-12-23T22:00:23.609Z,26.94
2022-12-23T22:01:23.591Z,26.91
2022-12-23T22:02:23.601Z,26.87
2022-12-23T22:03:23.598Z,26.87
